Bryant, AL

6:45 AM CDT on October 01, 2014 (GMT -0500)
New Home | Change Station
CLOSE
Current Station
Personal Weather Station
Location: Trenton, GA
Elevation: 1470 ft
Nearby Weather Stations
Active Advisory: Special Statement

Elev 1470 ft 34.98 °N, 85.51 °W | Updated 2 minutes ago

Partly Cloudy
Partly Cloudy
59.6 °F
Feels Like 59.6 °F
N
0.0
Wind Variable Wind from NNW
Gusts 0.0 mph

Today
High -- | Low -- °F
--% Chance of Precip.
Yesterday
High -- | Low -- °F
Precip. -- in
6:37 AM 6:26 PM
Waxing Crescent, 46% visible
Pressure 29.96 in
Visibility 4.0 miles
Clouds Scattered Clouds 600 ft
Dew Point 59 °F
Humidity 97%
Rainfall 0.00 in
Snow Depth Not available.
UV 0 out of 12
Pollen 4.80 out of 12
Air Quality Not available.
Flu Activity Not available.
METAR KCHA 011053Z 00000KT 4SM BR SCT006 17/15 A2998 RMK AO2 SLP146 T01670150

More Conditions Fewer Conditions

Pressure 29.96 in
Visibility 4.0 miles
Clouds Scattered Clouds 600 ft
Dew Point 59 °F
Humidity 97%
Rainfall 0.00 in
Snow Depth Not available.
UV 0 out of 12
Pollen 4.80 out of 12
Air Quality Not available.
Flu Activity Not available.
METAR KCHA 011053Z 00000KT 4SM BR SCT006 17/15 A2998 RMK AO2 SLP146 T01670150

More Conditions Fewer Conditions

10-Day Weather Forecast

Almanac

Astronomy

Oct. 01, 2014 Rise Set
Actual Time 6:37 AM CDT 6:26 PM CDT
Civil Twilight 6:12 AM CDT 6:51 PM CDT
Nautical Twilight 5:42 AM CDT 7:21 PM CDT
Astronomical Twilight 5:13 AM CDT 7:50 PM CDT
Moon 1:27 PM CDT No Moon Set
Length of Visible Light 12h 39m
Length of Day
11h 49m
Tomorrow will be 2m 11s shorter.
Waxing Crescent, 46% of the Moon is Illuminated
Today
Waxing Crescent
Oct 1
First Quarter
Oct 8
Full
Oct 15
Last Quarter
Oct 23
New

Today's Extremes

State Highs State Lows

Community

WunderPhotos

Upload Photos

1,757,913 photos uploaded!

Nearby

Snow Depth

Station Depth Elevation
No new snow has been reported.

Earthquake Activity

City Distance Mag. Time & Date
No recent earthquake activity has been reported nearby.
Minimum magnitude displayed is 2.5.

Coastal Water Temperatures

Place Temperature
No Stations Reporting

Nearby Weather Stations